sensor_id;sensor_type;location;lat;lon;timestamp;temperature;humidity
70708;SHT30;58277;47.316;18.908;2023-02-03T00:00:56;2.26;82.27
70708;SHT30;58277;47.316;18.908;2023-02-03T00:03:18;2.21;82.23
70708;SHT30;58277;47.316;18.908;2023-02-03T00:05:41;2.16;82.44
70708;SHT30;58277;47.316;18.908;2023-02-03T00:08:06;2.19;82.38
70708;SHT30;58277;47.316;18.908;2023-02-03T00:10:28;2.20;82.11
70708;SHT30;58277;47.316;18.908;2023-02-03T00:12:51;2.16;82.17
70708;SHT30;58277;47.316;18.908;2023-02-03T00:15:18;2.10;82.42
70708;SHT30;58277;47.316;18.908;2023-02-03T00:17:41;2.12;82.30
70708;SHT30;58277;47.316;18.908;2023-02-03T00:20:05;2.09;82.47
70708;SHT30;58277;47.316;18.908;2023-02-03T00:22:28;2.02;82.79
70708;SHT30;58277;47.316;18.908;2023-02-03T00:24:50;2.00;82.81
70708;SHT30;58277;47.316;18.908;2023-02-03T00:27:13;1.98;82.99
70708;SHT30;58277;47.316;18.908;2023-02-03T00:29:36;2.03;82.64
70708;SHT30;58277;47.316;18.908;2023-02-03T00:32:12;2.03;82.73
70708;SHT30;58277;47.316;18.908;2023-02-03T00:34:35;2.03;82.73
70708;SHT30;58277;47.316;18.908;2023-02-03T00:36:58;2.10;82.29
70708;SHT30;58277;47.316;18.908;2023-02-03T00:39:21;2.09;82.50
70708;SHT30;58277;47.316;18.908;2023-02-03T00:41:44;2.02;82.65
70708;SHT30;58277;47.316;18.908;2023-02-03T00:44:06;2.02;82.76
70708;SHT30;58277;47.316;18.908;2023-02-03T00:46:29;2.00;82.62
70708;SHT30;58277;47.316;18.908;2023-02-03T00:48:51;1.92;82.74
70708;SHT30;58277;47.316;18.908;2023-02-03T00:51:14;1.96;82.68
70708;SHT30;58277;47.316;18.908;2023-02-03T00:53:37;1.95;82.74
70708;SHT30;58277;47.316;18.908;2023-02-03T00:55:59;1.95;82.82
70708;SHT30;58277;47.316;18.908;2023-02-03T00:58:22;1.93;82.75
70708;SHT30;58277;47.316;18.908;2023-02-03T01:00:45;1.96;82.61
70708;SHT30;58277;47.316;18.908;2023-02-03T01:03:07;1.91;82.93
70708;SHT30;58277;47.316;18.908;2023-02-03T01:05:32;1.91;82.80
70708;SHT30;58277;47.316;18.908;2023-02-03T01:07:54;1.95;82.50
70708;SHT30;58277;47.316;18.908;2023-02-03T01:10:17;1.89;82.59
70708;SHT30;58277;47.316;18.908;2023-02-03T01:12:40;1.85;82.87
70708;SHT30;58277;47.316;18.908;2023-02-03T01:15:02;1.85;82.75
70708;SHT30;58277;47.316;18.908;2023-02-03T01:17:25;1.87;82.62
70708;SHT30;58277;47.316;18.908;2023-02-03T01:19:50;1.87;82.34
70708;SHT30;58277;47.316;18.908;2023-02-03T01:22:13;1.86;82.46
70708;SHT30;58277;47.316;18.908;2023-02-03T01:24:35;1.78;82.61
70708;SHT30;58277;47.316;18.908;2023-02-03T01:26:59;1.83;82.38
70708;SHT30;58277;47.316;18.908;2023-02-03T01:29:23;1.78;82.90
70708;SHT30;58277;47.316;18.908;2023-02-03T01:31:46;1.75;83.10
70708;SHT30;58277;47.316;18.908;2023-02-03T01:34:13;1.69;83.50
70708;SHT30;58277;47.316;18.908;2023-02-03T01:36:38;1.64;83.77
70708;SHT30;58277;47.316;18.908;2023-02-03T01:39:01;1.55;84.09
70708;SHT30;58277;47.316;18.908;2023-02-03T01:41:30;1.54;84.36
70708;SHT30;58277;47.316;18.908;2023-02-03T01:43:55;1.50;84.56
70708;SHT30;58277;47.316;18.908;2023-02-03T01:46:31;1.40;85.00
70708;SHT30;58277;47.316;18.908;2023-02-03T01:51:25;1.33;85.53
70708;SHT30;58277;47.316;18.908;2023-02-03T01:53:50;1.35;85.48
70708;SHT30;58277;47.316;18.908;2023-02-03T01:56:14;1.30;85.56
70708;SHT30;58277;47.316;18.908;2023-02-03T01:58:39;1.26;85.56
70708;SHT30;58277;47.316;18.908;2023-02-03T02:01:03;1.33;85.40
70708;SHT30;58277;47.316;18.908;2023-02-03T02:03:31;1.30;85.52
70708;SHT30;58277;47.316;18.908;2023-02-03T02:06:08;1.30;85.64
70708;SHT30;58277;47.316;18.908;2023-02-03T02:08:35;1.23;85.70
70708;SHT30;58277;47.316;18.908;2023-02-03T02:10:59;1.26;85.40
70708;SHT30;58277;47.316;18.908;2023-02-03T02:13:22;1.16;85.83
70708;SHT30;58277;47.316;18.908;2023-02-03T02:26:29;1.14;86.40
70708;SHT30;58277;47.316;18.908;2023-02-03T02:37:21;1.23;86.04
70708;SHT30;58277;47.316;18.908;2023-02-03T02:39:57;1.34;84.98
70708;SHT30;58277;47.316;18.908;2023-02-03T02:45:14;1.37;84.37
70708;SHT30;58277;47.316;18.908;2023-02-03T02:47:40;1.37;84.23
70708;SHT30;58277;47.316;18.908;2023-02-03T02:50:12;1.41;84.10
70708;SHT30;58277;47.316;18.908;2023-02-03T02:52:40;1.44;84.13
70708;SHT30;58277;47.316;18.908;2023-02-03T02:55:14;1.40;84.66
70708;SHT30;58277;47.316;18.908;2023-02-03T02:57:38;1.33;85.14
70708;SHT30;58277;47.316;18.908;2023-02-03T03:00:02;1.28;85.34
70708;SHT30;58277;47.316;18.908;2023-02-03T03:02:35;1.27;85.56
70708;SHT30;58277;47.316;18.908;2023-02-03T03:04:57;1.27;85.55
70708;SHT30;58277;47.316;18.908;2023-02-03T03:07:24;1.20;85.78
70708;SHT30;58277;47.316;18.908;2023-02-03T03:10:01;1.24;86.00
70708;SHT30;58277;47.316;18.908;2023-02-03T03:12:28;1.23;86.29
70708;SHT30;58277;47.316;18.908;2023-02-03T03:15:00;1.24;86.10
70708;SHT30;58277;47.316;18.908;2023-02-03T03:17:32;1.30;85.84
70708;SHT30;58277;47.316;18.908;2023-02-03T03:20:00;1.26;85.60
70708;SHT30;58277;47.316;18.908;2023-02-03T03:22:27;1.26;85.15
70708;SHT30;58277;47.316;18.908;2023-02-03T03:24:57;1.23;85.35
70708;SHT30;58277;47.316;18.908;2023-02-03T03:27:29;1.16;85.71
70708;SHT30;58277;47.316;18.908;2023-02-03T03:30:01;1.19;85.39
70708;SHT30;58277;47.316;18.908;2023-02-03T03:32:24;1.14;85.33
70708;SHT30;58277;47.316;18.908;2023-02-03T03:34:50;1.16;85.37
70708;SHT30;58277;47.316;18.908;2023-02-03T03:39:56;1.10;85.55
70708;SHT30;58277;47.316;18.908;2023-02-03T03:42:39;1.03;85.76
70708;SHT30;58277;47.316;18.908;2023-02-03T03:47:41;1.07;85.93
70708;SHT30;58277;47.316;18.908;2023-02-03T03:50:09;1.08;85.71
70708;SHT30;58277;47.316;18.908;2023-02-03T03:52:35;1.01;85.78
70708;SHT30;58277;47.316;18.908;2023-02-03T03:54:59;1.00;86.13
70708;SHT30;58277;47.316;18.908;2023-02-03T03:57:48;1.06;85.87
70708;SHT30;58277;47.316;18.908;2023-02-03T04:00:16;1.03;85.50
70708;SHT30;58277;47.316;18.908;2023-02-03T04:02:41;0.96;85.84
70708;SHT30;58277;47.316;18.908;2023-02-03T04:05:09;1.03;85.34
70708;SHT30;58277;47.316;18.908;2023-02-03T04:07:40;1.08;84.80
70708;SHT30;58277;47.316;18.908;2023-02-03T04:10:06;1.03;84.95
70708;SHT30;58277;47.316;18.908;2023-02-03T04:12:34;1.08;84.68
70708;SHT30;58277;47.316;18.908;2023-02-03T04:14:56;1.01;84.83
70708;SHT30;58277;47.316;18.908;2023-02-03T04:17:19;0.97;84.44
70708;SHT30;58277;47.316;18.908;2023-02-03T04:19:42;1.07;84.21
70708;SHT30;58277;47.316;18.908;2023-02-03T04:22:04;1.00;84.28
70708;SHT30;58277;47.316;18.908;2023-02-03T04:24:27;0.95;84.13
70708;SHT30;58277;47.316;18.908;2023-02-03T04:26:49;0.90;84.26
70708;SHT30;58277;47.316;18.908;2023-02-03T04:29:12;0.89;83.95
70708;SHT30;58277;47.316;18.908;2023-02-03T04:31:35;0.86;83.44
70708;SHT30;58277;47.316;18.908;2023-02-03T04:33:58;0.93;83.41
70708;SHT30;58277;47.316;18.908;2023-02-03T04:36:20;0.89;83.02
70708;SHT30;58277;47.316;18.908;2023-02-03T04:38:43;0.86;82.54
70708;SHT30;58277;47.316;18.908;2023-02-03T04:41:05;0.86;82.23
70708;SHT30;58277;47.316;18.908;2023-02-03T04:43:28;0.93;81.49
70708;SHT30;58277;47.316;18.908;2023-02-03T04:45:50;0.97;81.04
70708;SHT30;58277;47.316;18.908;2023-02-03T04:48:13;1.10;80.40
70708;SHT30;58277;47.316;18.908;2023-02-03T04:50:36;1.10;80.03
70708;SHT30;58277;47.316;18.908;2023-02-03T04:52:58;1.23;80.15
70708;SHT30;58277;47.316;18.908;2023-02-03T04:55:21;1.27;79.86
70708;SHT30;58277;47.316;18.908;2023-02-03T04:57:44;1.28;79.58
70708;SHT30;58277;47.316;18.908;2023-02-03T05:00:07;1.40;79.59
70708;SHT30;58277;47.316;18.908;2023-02-03T05:02:36;1.40;79.16
70708;SHT30;58277;47.316;18.908;2023-02-03T05:04:59;1.47;78.61
70708;SHT30;58277;47.316;18.908;2023-02-03T05:07:21;1.48;78.14
70708;SHT30;58277;47.316;18.908;2023-02-03T05:09:44;1.52;78.54
70708;SHT30;58277;47.316;18.908;2023-02-03T05:12:07;1.55;78.27
70708;SHT30;58277;47.316;18.908;2023-02-03T05:14:29;1.64;77.93
70708;SHT30;58277;47.316;18.908;2023-02-03T05:16:52;1.56;77.62
70708;SHT30;58277;47.316;18.908;2023-02-03T05:19:14;1.58;77.70
70708;SHT30;58277;47.316;18.908;2023-02-03T05:21:37;1.59;78.23
70708;SHT30;58277;47.316;18.908;2023-02-03T05:23:59;1.61;78.22
70708;SHT30;58277;47.316;18.908;2023-02-03T05:26:24;1.69;78.48
70708;SHT30;58277;47.316;18.908;2023-02-03T05:28:47;1.78;78.09
70708;SHT30;58277;47.316;18.908;2023-02-03T05:31:11;1.83;78.12
70708;SHT30;58277;47.316;18.908;2023-02-03T05:33:34;1.83;77.97
70708;SHT30;58277;47.316;18.908;2023-02-03T05:35:57;1.81;78.05
70708;SHT30;58277;47.316;18.908;2023-02-03T05:38:20;1.72;78.73
70708;SHT30;58277;47.316;18.908;2023-02-03T05:40:43;1.73;78.91
70708;SHT30;58277;47.316;18.908;2023-02-03T05:43:24;1.71;79.31
70708;SHT30;58277;47.316;18.908;2023-02-03T05:45:47;1.83;79.11
70708;SHT30;58277;47.316;18.908;2023-02-03T05:48:10;1.86;78.70
70708;SHT30;58277;47.316;18.908;2023-02-03T05:50:33;1.95;78.14
70708;SHT30;58277;47.316;18.908;2023-02-03T05:53:03;1.85;78.12
70708;SHT30;58277;47.316;18.908;2023-02-03T05:55:28;1.87;78.10
70708;SHT30;58277;47.316;18.908;2023-02-03T05:57:50;1.96;77.66
70708;SHT30;58277;47.316;18.908;2023-02-03T06:00:13;2.09;77.03
70708;SHT30;58277;47.316;18.908;2023-02-03T06:02:36;2.05;77.00
70708;SHT30;58277;47.316;18.908;2023-02-03T06:04:59;2.12;76.61
70708;SHT30;58277;47.316;18.908;2023-02-03T06:07:21;2.13;76.60
70708;SHT30;58277;47.316;18.908;2023-02-03T06:09:44;2.20;76.13
70708;SHT30;58277;47.316;18.908;2023-02-03T06:12:07;2.21;76.19
70708;SHT30;58277;47.316;18.908;2023-02-03T06:14:29;2.33;76.55
70708;SHT30;58277;47.316;18.908;2023-02-03T06:16:52;2.44;75.86
70708;SHT30;58277;47.316;18.908;2023-02-03T06:19:15;2.54;75.62
70708;SHT30;58277;47.316;18.908;2023-02-03T06:21:37;2.52;75.92
70708;SHT30;58277;47.316;18.908;2023-02-03T06:24:00;2.62;75.81
70708;SHT30;58277;47.316;18.908;2023-02-03T06:26:23;2.54;75.93
70708;SHT30;58277;47.316;18.908;2023-02-03T06:28:46;2.40;75.79
70708;SHT30;58277;47.316;18.908;2023-02-03T06:31:09;2.31;76.38
70708;SHT30;58277;47.316;18.908;2023-02-03T06:33:32;2.40;76.05
70708;SHT30;58277;47.316;18.908;2023-02-03T06:35:55;2.37;76.67
70708;SHT30;58277;47.316;18.908;2023-02-03T06:38:17;2.38;76.38
70708;SHT30;58277;47.316;18.908;2023-02-03T06:40:40;2.51;76.21
70708;SHT30;58277;47.316;18.908;2023-02-03T06:43:03;2.54;75.81
70708;SHT30;58277;47.316;18.908;2023-02-03T06:45:26;2.40;75.71
70708;SHT30;58277;47.316;18.908;2023-02-03T06:47:49;2.48;75.17
70708;SHT30;58277;47.316;18.908;2023-02-03T06:50:13;2.50;75.00
70708;SHT30;58277;47.316;18.908;2023-02-03T06:52:36;2.50;74.79
70708;SHT30;58277;47.316;18.908;2023-02-03T06:54:59;2.51;74.58
70708;SHT30;58277;47.316;18.908;2023-02-03T06:57:22;2.54;74.92
70708;SHT30;58277;47.316;18.908;2023-02-03T06:59:44;2.54;74.51
70708;SHT30;58277;47.316;18.908;2023-02-03T07:02:10;2.57;74.39
70708;SHT30;58277;47.316;18.908;2023-02-03T07:04:32;2.58;74.12
70708;SHT30;58277;47.316;18.908;2023-02-03T07:06:56;2.57;74.16
70708;SHT30;58277;47.316;18.908;2023-02-03T07:09:19;2.58;74.11
70708;SHT30;58277;47.316;18.908;2023-02-03T07:11:42;2.60;74.13
70708;SHT30;58277;47.316;18.908;2023-02-03T07:14:06;2.52;74.05
70708;SHT30;58277;47.316;18.908;2023-02-03T07:16:30;2.54;74.19
70708;SHT30;58277;47.316;18.908;2023-02-03T07:18:54;2.61;74.52
70708;SHT30;58277;47.316;18.908;2023-02-03T07:21:17;2.62;74.06
70708;SHT30;58277;47.316;18.908;2023-02-03T07:23:40;2.55;74.38
70708;SHT30;58277;47.316;18.908;2023-02-03T07:26:04;2.61;74.48
70708;SHT30;58277;47.316;18.908;2023-02-03T07:28:27;2.60;74.38
70708;SHT30;58277;47.316;18.908;2023-02-03T07:30:50;2.64;74.56
70708;SHT30;58277;47.316;18.908;2023-02-03T07:33:14;2.65;74.41
70708;SHT30;58277;47.316;18.908;2023-02-03T07:35:36;2.64;74.58
70708;SHT30;58277;47.316;18.908;2023-02-03T07:37:59;2.68;74.63
70708;SHT30;58277;47.316;18.908;2023-02-03T07:40:22;2.61;74.76
70708;SHT30;58277;47.316;18.908;2023-02-03T07:42:46;2.66;74.84
70708;SHT30;58277;47.316;18.908;2023-02-03T07:45:11;2.84;74.25
70708;SHT30;58277;47.316;18.908;2023-02-03T07:47:34;2.86;74.53
70708;SHT30;58277;47.316;18.908;2023-02-03T07:49:56;2.89;74.32
70708;SHT30;58277;47.316;18.908;2023-02-03T07:52:19;2.86;74.77
70708;SHT30;58277;47.316;18.908;2023-02-03T07:54:43;2.85;74.89
70708;SHT30;58277;47.316;18.908;2023-02-03T07:57:06;3.03;74.79
70708;SHT30;58277;47.316;18.908;2023-02-03T07:59:29;2.96;74.82
70708;SHT30;58277;47.316;18.908;2023-02-03T08:01:51;2.92;75.30
70708;SHT30;58277;47.316;18.908;2023-02-03T08:04:17;3.03;75.34
70708;SHT30;58277;47.316;18.908;2023-02-03T08:06:42;3.33;74.51
70708;SHT30;58277;47.316;18.908;2023-02-03T08:09:05;3.38;73.87
70708;SHT30;58277;47.316;18.908;2023-02-03T08:11:27;3.47;73.88
70708;SHT30;58277;47.316;18.908;2023-02-03T08:13:50;3.34;74.24
70708;SHT30;58277;47.316;18.908;2023-02-03T08:16:13;3.34;74.15
70708;SHT30;58277;47.316;18.908;2023-02-03T08:18:35;3.38;73.97
70708;SHT30;58277;47.316;18.908;2023-02-03T08:20:58;3.40;73.98
70708;SHT30;58277;47.316;18.908;2023-02-03T08:23:22;3.23;74.32
70708;SHT30;58277;47.316;18.908;2023-02-03T08:25:49;3.22;74.75
70708;SHT30;58277;47.316;18.908;2023-02-03T08:28:12;3.31;74.62
70708;SHT30;58277;47.316;18.908;2023-02-03T08:30:35;3.37;74.79
70708;SHT30;58277;47.316;18.908;2023-02-03T08:32:58;3.33;74.94
70708;SHT30;58277;47.316;18.908;2023-02-03T08:35:21;3.22;75.52
70708;SHT30;58277;47.316;18.908;2023-02-03T08:37:44;2.99;76.34
70708;SHT30;58277;47.316;18.908;2023-02-03T08:40:07;3.05;76.67
70708;SHT30;58277;47.316;18.908;2023-02-03T08:42:30;2.88;77.45
70708;SHT30;58277;47.316;18.908;2023-02-03T08:44:53;2.95;77.93
70708;SHT30;58277;47.316;18.908;2023-02-03T08:47:16;2.84;78.83
70708;SHT30;58277;47.316;18.908;2023-02-03T08:49:39;2.78;79.79
70708;SHT30;58277;47.316;18.908;2023-02-03T08:52:02;2.71;80.77
70708;SHT30;58277;47.316;18.908;2023-02-03T08:54:29;2.62;81.53
70708;SHT30;58277;47.316;18.908;2023-02-03T08:56:52;2.60;82.69
70708;SHT30;58277;47.316;18.908;2023-02-03T08:59:15;2.62;83.27
70708;SHT30;58277;47.316;18.908;2023-02-03T09:01:38;2.50;84.04
70708;SHT30;58277;47.316;18.908;2023-02-03T09:04:07;2.50;84.89
70708;SHT30;58277;47.316;18.908;2023-02-03T09:06:30;2.54;85.06
70708;SHT30;58277;47.316;18.908;2023-02-03T09:08:53;2.61;85.15
70708;SHT30;58277;47.316;18.908;2023-02-03T09:11:17;2.64;85.28
70708;SHT30;58277;47.316;18.908;2023-02-03T09:13:41;2.60;85.92
70708;SHT30;58277;47.316;18.908;2023-02-03T09:16:07;2.62;85.95
70708;SHT30;58277;47.316;18.908;2023-02-03T09:18:30;2.64;86.16
70708;SHT30;58277;47.316;18.908;2023-02-03T09:21:02;2.68;85.90
70708;SHT30;58277;47.316;18.908;2023-02-03T09:23:26;2.86;85.42
70708;SHT30;58277;47.316;18.908;2023-02-03T09:25:49;3.05;84.71
70708;SHT30;58277;47.316;18.908;2023-02-03T09:28:11;2.95;84.92
70708;SHT30;58277;47.316;18.908;2023-02-03T09:30:34;3.05;84.64
70708;SHT30;58277;47.316;18.908;2023-02-03T09:32:57;3.00;84.79
70708;SHT30;58277;47.316;18.908;2023-02-03T09:35:21;2.85;85.75
70708;SHT30;58277;47.316;18.908;2023-02-03T09:37:44;2.84;86.42
70708;SHT30;58277;47.316;18.908;2023-02-03T09:40:10;2.81;86.26
70708;SHT30;58277;47.316;18.908;2023-02-03T09:42:54;2.89;85.75
70708;SHT30;58277;47.316;18.908;2023-02-03T09:45:25;3.07;85.60
70708;SHT30;58277;47.316;18.908;2023-02-03T09:47:49;3.31;84.79
70708;SHT30;58277;47.316;18.908;2023-02-03T09:50:20;3.58;83.81
70708;SHT30;58277;47.316;18.908;2023-02-03T09:52:44;3.74;83.45
70708;SHT30;58277;47.316;18.908;2023-02-03T09:57:53;3.74;83.51
70708;SHT30;58277;47.316;18.908;2023-02-03T10:00:22;3.81;83.58
70708;SHT30;58277;47.316;18.908;2023-02-03T10:02:55;3.99;83.02
70708;SHT30;58277;47.316;18.908;2023-02-03T10:05:24;4.05;82.60
70708;SHT30;58277;47.316;18.908;2023-02-03T10:18:22;3.89;83.26
70708;SHT30;58277;47.316;18.908;2023-02-03T10:20:50;3.99;83.00
70708;SHT30;58277;47.316;18.908;2023-02-03T10:23:19;3.89;82.86
70708;SHT30;58277;47.316;18.908;2023-02-03T10:25:47;3.73;83.41
70708;SHT30;58277;47.316;18.908;2023-02-03T10:28:21;3.70;83.93
70708;SHT30;58277;47.316;18.908;2023-02-03T10:30:55;3.73;83.43
70708;SHT30;58277;47.316;18.908;2023-02-03T10:33:18;3.51;84.24
70708;SHT30;58277;47.316;18.908;2023-02-03T10:35:52;3.55;84.09
70708;SHT30;58277;47.316;18.908;2023-02-03T10:38:45;3.54;84.20
70708;SHT30;58277;47.316;18.908;2023-02-03T10:41:03;3.51;84.32
70708;SHT30;58277;47.316;18.908;2023-02-03T10:43:28;3.54;84.03
70708;SHT30;58277;47.316;18.908;2023-02-03T10:46:08;3.40;84.87
70708;SHT30;58277;47.316;18.908;2023-02-03T10:48:31;3.40;84.57
70708;SHT30;58277;47.316;18.908;2023-02-03T10:50:55;3.33;84.50
70708;SHT30;58277;47.316;18.908;2023-02-03T10:53:24;3.33;84.97
70708;SHT30;58277;47.316;18.908;2023-02-03T10:56:00;3.31;84.69
70708;SHT30;58277;47.316;18.908;2023-02-03T10:58:28;3.23;85.00
70708;SHT30;58277;47.316;18.908;2023-02-03T11:01:05;3.24;84.97
70708;SHT30;58277;47.316;18.908;2023-02-03T11:03:29;3.17;85.15
70708;SHT30;58277;47.316;18.908;2023-02-03T11:06:12;3.17;85.21
70708;SHT30;58277;47.316;18.908;2023-02-03T11:08:39;3.13;85.50
70708;SHT30;58277;47.316;18.908;2023-02-03T11:11:05;3.10;85.45
70708;SHT30;58277;47.316;18.908;2023-02-03T11:13:28;3.26;85.09
70708;SHT30;58277;47.316;18.908;2023-02-03T11:15:58;3.24;85.13
70708;SHT30;58277;47.316;18.908;2023-02-03T11:18:41;3.06;85.63
70708;SHT30;58277;47.316;18.908;2023-02-03T11:21:17;2.92;86.14
70708;SHT30;58277;47.316;18.908;2023-02-03T11:23:56;2.89;86.19
70708;SHT30;58277;47.316;18.908;2023-02-03T11:26:26;2.79;86.67
70708;SHT30;58277;47.316;18.908;2023-02-03T11:28:52;2.79;86.90
70708;SHT30;58277;47.316;18.908;2023-02-03T11:31:19;2.77;86.81
70708;SHT30;58277;47.316;18.908;2023-02-03T11:33:46;2.81;86.64
70708;SHT30;58277;47.316;18.908;2023-02-03T11:36:10;2.77;86.72
70708;SHT30;58277;47.316;18.908;2023-02-03T11:38:34;2.66;87.16
70708;SHT30;58277;47.316;18.908;2023-02-03T11:41:03;2.72;87.06
70708;SHT30;58277;47.316;18.908;2023-02-03T11:43:27;2.78;87.10
70708;SHT30;58277;47.316;18.908;2023-02-03T11:46:01;2.82;87.05
70708;SHT30;58277;47.316;18.908;2023-02-03T11:51:27;2.85;87.16
70708;SHT30;58277;47.316;18.908;2023-02-03T11:59:44;2.89;87.07
70708;SHT30;58277;47.316;18.908;2023-02-03T12:10:36;3.19;86.81
70708;SHT30;58277;47.316;18.908;2023-02-03T12:16:24;3.07;87.08
70708;SHT30;58277;47.316;18.908;2023-02-03T12:21:32;3.22;87.20
70708;SHT30;58277;47.316;18.908;2023-02-03T12:29:34;3.20;87.48
70708;SHT30;58277;47.316;18.908;2023-02-03T12:34:53;3.34;87.95
70708;SHT30;58277;47.316;18.908;2023-02-03T12:37:27;3.27;87.56
70708;SHT30;58277;47.316;18.908;2023-02-03T12:39:52;3.20;87.84
70708;SHT30;58277;47.316;18.908;2023-02-03T12:42:34;3.33;88.13
70708;SHT30;58277;47.316;18.908;2023-02-03T12:45:18;3.37;87.95
70708;SHT30;58277;47.316;18.908;2023-02-03T12:48:04;3.37;87.85
70708;SHT30;58277;47.316;18.908;2023-02-03T12:50:51;3.23;88.57
70708;SHT30;58277;47.316;18.908;2023-02-03T12:53:19;3.23;88.58
70708;SHT30;58277;47.316;18.908;2023-02-03T12:55:55;3.34;88.56
70708;SHT30;58277;47.316;18.908;2023-02-03T12:58:26;3.38;88.26
70708;SHT30;58277;47.316;18.908;2023-02-03T13:03:46;3.43;88.66
70708;SHT30;58277;47.316;18.908;2023-02-03T13:08:43;3.37;89.01
70708;SHT30;58277;47.316;18.908;2023-02-03T13:13:51;3.46;89.27
70708;SHT30;58277;47.316;18.908;2023-02-03T13:16:16;3.46;89.24
70708;SHT30;58277;47.316;18.908;2023-02-03T13:18:45;3.50;89.74
70708;SHT30;58277;47.316;18.908;2023-02-03T13:21:10;3.58;89.39
70708;SHT30;58277;47.316;18.908;2023-02-03T13:23:34;3.71;89.35
70708;SHT30;58277;47.316;18.908;2023-02-03T13:31:37;3.95;88.76
70708;SHT30;58277;47.316;18.908;2023-02-03T13:42:06;3.92;89.35
70708;SHT30;58277;47.316;18.908;2023-02-03T13:44:30;3.98;89.33
70708;SHT30;58277;47.316;18.908;2023-02-03T13:46:54;4.10;88.89
70708;SHT30;58277;47.316;18.908;2023-02-03T13:49:27;4.02;89.10
70708;SHT30;58277;47.316;18.908;2023-02-03T13:51:52;3.99;89.37
70708;SHT30;58277;47.316;18.908;2023-02-03T13:54:47;4.10;89.00
70708;SHT30;58277;47.316;18.908;2023-02-03T13:57:21;4.28;88.76
70708;SHT30;58277;47.316;18.908;2023-02-03T13:59:46;4.33;88.72
70708;SHT30;58277;47.316;18.908;2023-02-03T14:07:27;4.23;88.96
70708;SHT30;58277;47.316;18.908;2023-02-03T14:12:37;4.47;88.84
70708;SHT30;58277;47.316;18.908;2023-02-03T14:22:49;4.40;89.31
70708;SHT30;58277;47.316;18.908;2023-02-03T14:25:18;4.44;89.27
70708;SHT30;58277;47.316;18.908;2023-02-03T14:27:40;4.50;88.97
70708;SHT30;58277;47.316;18.908;2023-02-03T14:30:07;4.62;88.83
70708;SHT30;58277;47.316;18.908;2023-02-03T14:32:58;4.57;89.05
70708;SHT30;58277;47.316;18.908;2023-02-03T14:35:32;4.68;88.65
70708;SHT30;58277;47.316;18.908;2023-02-03T14:37:59;4.70;88.54
70708;SHT30;58277;47.316;18.908;2023-02-03T14:51:42;4.41;89.64
70708;SHT30;58277;47.316;18.908;2023-02-03T15:00:16;4.57;89.44
70708;SHT30;58277;47.316;18.908;2023-02-03T15:07:54;4.84;89.10
70708;SHT30;58277;47.316;18.908;2023-02-03T15:10:19;4.82;88.92
70708;SHT30;58277;47.316;18.908;2023-02-03T15:12:50;4.91;88.64
70708;SHT30;58277;47.316;18.908;2023-02-03T15:15:24;4.92;88.58
70708;SHT30;58277;47.316;18.908;2023-02-03T15:17:50;4.93;88.58
70708;SHT30;58277;47.316;18.908;2023-02-03T15:22:46;4.87;88.84
70708;SHT30;58277;47.316;18.908;2023-02-03T15:25:16;4.93;88.83
70708;SHT30;58277;47.316;18.908;2023-02-03T15:27:39;4.68;89.52
70708;SHT30;58277;47.316;18.908;2023-02-03T15:30:23;4.65;89.82
70708;SHT30;58277;47.316;18.908;2023-02-03T15:33:06;4.74;89.71
70708;SHT30;58277;47.316;18.908;2023-02-03T15:35:31;4.85;89.44
70708;SHT30;58277;47.316;18.908;2023-02-03T15:38:00;4.75;89.60
70708;SHT30;58277;47.316;18.908;2023-02-03T15:40:37;4.84;89.67
70708;SHT30;58277;47.316;18.908;2023-02-03T15:43:08;4.75;90.09
70708;SHT30;58277;47.316;18.908;2023-02-03T15:48:10;4.68;90.24
70708;SHT30;58277;47.316;18.908;2023-02-03T15:50:47;4.68;90.48
70708;SHT30;58277;47.316;18.908;2023-02-03T15:53:18;4.85;90.26
70708;SHT30;58277;47.316;18.908;2023-02-03T15:55:44;4.74;90.11
70708;SHT30;58277;47.316;18.908;2023-02-03T15:58:23;4.92;89.89
70708;SHT30;58277;47.316;18.908;2023-02-03T16:00:50;4.85;90.07
70708;SHT30;58277;47.316;18.908;2023-02-03T16:03:20;4.78;90.20
70708;SHT30;58277;47.316;18.908;2023-02-03T16:05:44;4.82;90.21
70708;SHT30;58277;47.316;18.908;2023-02-03T16:08:36;4.84;90.21
70708;SHT30;58277;47.316;18.908;2023-02-03T16:10:59;4.82;89.94
70708;SHT30;58277;47.316;18.908;2023-02-03T16:13:25;4.79;90.08
70708;SHT30;58277;47.316;18.908;2023-02-03T16:16:04;4.70;90.25
70708;SHT30;58277;47.316;18.908;2023-02-03T16:18:31;4.64;90.52
70708;SHT30;58277;47.316;18.908;2023-02-03T16:20:57;4.70;90.58
70708;SHT30;58277;47.316;18.908;2023-02-03T16:23:24;4.61;90.77
70708;SHT30;58277;47.316;18.908;2023-02-03T16:26:16;4.70;90.91
70708;SHT30;58277;47.316;18.908;2023-02-03T16:28:39;4.74;90.88
70708;SHT30;58277;47.316;18.908;2023-02-03T16:31:21;4.75;90.88
70708;SHT30;58277;47.316;18.908;2023-02-03T16:34:16;4.68;90.76
70708;SHT30;58277;47.316;18.908;2023-02-03T16:36:57;4.77;90.63
70708;SHT30;58277;47.316;18.908;2023-02-03T16:39:39;4.74;90.84
70708;SHT30;58277;47.316;18.908;2023-02-03T16:42:20;4.74;90.84
70708;SHT30;58277;47.316;18.908;2023-02-03T16:45:03;4.67;91.00
70708;SHT30;58277;47.316;18.908;2023-02-03T16:47:45;4.60;91.21
70708;SHT30;58277;47.316;18.908;2023-02-03T16:50:27;4.64;91.19
70708;SHT30;58277;47.316;18.908;2023-02-03T16:53:17;4.67;90.93
70708;SHT30;58277;47.316;18.908;2023-02-03T16:55:42;4.62;91.14
70708;SHT30;58277;47.316;18.908;2023-02-03T16:58:05;4.64;90.91
70708;SHT30;58277;47.316;18.908;2023-02-03T17:00:27;4.65;90.72
70708;SHT30;58277;47.316;18.908;2023-02-03T17:02:50;4.64;90.25
70708;SHT30;58277;47.316;18.908;2023-02-03T17:05:13;4.64;90.37
70708;SHT30;58277;47.316;18.908;2023-02-03T17:07:36;4.68;90.10
70708;SHT30;58277;47.316;18.908;2023-02-03T17:09:58;4.68;90.31
70708;SHT30;58277;47.316;18.908;2023-02-03T17:12:21;4.62;90.45
70708;SHT30;58277;47.316;18.908;2023-02-03T17:14:44;4.62;90.43
70708;SHT30;58277;47.316;18.908;2023-02-03T17:17:06;4.64;90.49
70708;SHT30;58277;47.316;18.908;2023-02-03T17:19:29;4.74;90.20
70708;SHT30;58277;47.316;18.908;2023-02-03T17:21:52;4.78;90.06
70708;SHT30;58277;47.316;18.908;2023-02-03T17:24:15;4.74;90.25
70708;SHT30;58277;47.316;18.908;2023-02-03T17:26:40;4.79;90.02
70708;SHT30;58277;47.316;18.908;2023-02-03T17:29:03;4.82;90.16
70708;SHT30;58277;47.316;18.908;2023-02-03T17:31:26;4.79;89.81
70708;SHT30;58277;47.316;18.908;2023-02-03T17:33:50;4.72;89.87
70708;SHT30;58277;47.316;18.908;2023-02-03T17:36:15;4.74;89.87
70708;SHT30;58277;47.316;18.908;2023-02-03T17:38:43;4.72;89.97
70708;SHT30;58277;47.316;18.908;2023-02-03T17:41:24;4.75;89.75
70708;SHT30;58277;47.316;18.908;2023-02-03T17:44:04;4.72;89.92
70708;SHT30;58277;47.316;18.908;2023-02-03T17:46:45;4.75;89.95